Time,TemperatureF,DewpointF,PressureIn,WindDirection,WindDirectionDegrees,WindSpeedMPH,WindSpeedGustMPH,Humidity,HourlyPrecipIn,Conditions,Clouds,dailyrainin,SoftwareType,DateUTC
2013-09-02 06:15:00,70.3,69.4,29.58,East,98,0.0,0.0,97,0.00,,,0.01,Wunderground v.1.15,2013-09-02 10:15:00,
2013-09-02 06:20:00,70.3,69.4,29.59,East,98,0.0,0.0,97,0.00,,,0.01,Wunderground v.1.15,2013-09-02 10:20:00,
2013-09-02 06:25:00,70.4,69.5,29.59,East,98,0.0,0.0,97,0.00,,,0.01,Wunderground v.1.15,2013-09-02 10:25:00,
2013-09-02 06:30:00,70.4,69.5,29.59,East,98,0.0,0.0,97,0.00,,,0.01,Wunderground v.1.15,2013-09-02 10:30:00,
2013-09-02 06:40:00,70.4,69.5,29.59,East,98,0.0,0.0,97,0.00,,,0.01,Wunderground v.1.15,2013-09-02 10:40:00,
2013-09-02 06:45:00,70.4,69.5,29.59,East,98,0.0,0.0,97,0.00,,,0.01,Wunderground v.1.15,2013-09-02 10:45:00,
2013-09-02 06:50:00,70.4,69.5,29.59,SE,127,0.0,0.0,97,0.00,,,0.01,Wunderground v.1.15,2013-09-02 10:50:00,
2013-09-02 07:00:00,70.4,69.5,29.59,SSE,150,0.0,0.0,97,0.00,,,0.01,Wunderground v.1.15,2013-09-02 11:00:00,
2013-09-02 07:10:00,70.4,69.5,29.59,SSE,150,0.0,0.0,97,0.00,,,0.01,Wunderground v.1.15,2013-09-02 11:10:00,
2013-09-02 07:15:00,70.4,69.5,29.58,SSW,198,0.0,0.0,97,0.00,,,0.01,Wunderground v.1.15,2013-09-02 11:15:00,
2013-09-02 07:25:00,70.4,69.5,29.58,SSW,198,0.0,0.0,97,0.00,,,0.01,Wunderground v.1.15,2013-09-02 11:25:00,
2013-09-02 07:30:00,70.4,69.5,29.58,SSW,198,0.0,0.0,97,0.00,,,0.01,Wunderground v.1.15,2013-09-02 11:30:00,
2013-09-02 07:35:00,70.5,69.6,29.58,SSW,207,0.0,0.0,97,0.00,,,0.01,Wunderground v.1.15,2013-09-02 11:35:00,
2013-09-02 07:40:00,70.5,69.6,29.58,SSW,195,0.0,0.0,97,0.00,,,0.01,Wunderground v.1.15,2013-09-02 11:40:00,
2013-09-02 07:45:00,70.5,69.6,29.57,SW,215,0.0,0.0,97,0.00,,,0.01,Wunderground v.1.15,2013-09-02 11:45:00,
2013-09-02 07:50:00,70.5,69.6,29.58,SSW,210,0.0,0.0,97,0.00,,,0.01,Wunderground v.1.15,2013-09-02 11:50:00,
2013-09-02 07:55:00,70.6,70.0,29.58,SSE,150,0.0,0.0,98,0.00,,,0.01,Wunderground v.1.15,2013-09-02 11:55:00,
2013-09-02 08:00:00,70.6,70.0,29.58,SSW,192,0.0,0.0,98,0.00,,,0.01,Wunderground v.1.15,2013-09-02 12:00:00,
2013-09-02 08:10:00,70.7,69.8,29.58,SW,217,0.0,0.0,97,0.00,,,0.01,Wunderground v.1.15,2013-09-02 12:10:00,
2013-09-02 08:15:00,70.7,69.8,29.58,SW,217,0.0,0.0,97,0.00,,,0.01,Wunderground v.1.15,2013-09-02 12:15:00,
2013-09-02 08:20:00,70.8,69.9,29.57,ENE,71,0.0,0.0,97,0.00,,,0.01,Wunderground v.1.15,2013-09-02 12:20:00,
2013-09-02 08:25:00,71.0,70.1,29.58,South,188,0.0,0.0,97,0.00,,,0.01,Wunderground v.1.15,2013-09-02 12:25:00,
2013-09-02 08:30:00,71.0,70.1,29.57,SSW,193,0.0,0.0,97,0.00,,,0.01,Wunderground v.1.15,2013-09-02 12:30:00,
2013-09-02 08:40:00,71.1,70.5,29.57,SSW,193,0.0,0.0,98,0.00,,,0.01,Wunderground v.1.15,2013-09-02 12:40:00,
2013-09-02 08:45:00,71.1,70.2,29.58,West,273,0.0,0.0,97,0.00,,,0.01,Wunderground v.1.15,2013-09-02 12:45:00,
2013-09-02 08:50:00,71.1,70.2,29.58,West,273,0.0,0.0,97,0.00,,,0.01,Wunderground v.1.15,2013-09-02 12:50:00,
2013-09-02 08:55:00,71.1,70.2,29.58,SW,219,0.0,0.0,97,0.00,,,0.01,Wunderground v.1.15,2013-09-02 12:55:00,
2013-09-02 09:00:00,71.1,70.2,29.57,SE,142,0.0,0.0,97,0.00,,,0.01,Wunderground v.1.15,2013-09-02 13:00:00,
2013-09-02 09:10:00,71.2,70.3,29.57,South,182,0.0,0.0,97,0.00,,,0.01,Wunderground v.1.15,2013-09-02 13:10:00,
2013-09-02 09:15:00,71.2,70.3,29.57,South,182,0.0,0.0,97,0.00,,,0.01,Wunderground v.1.15,2013-09-02 13:15:00,
2013-09-02 09:20:00,71.3,70.4,29.58,SSW,196,0.0,0.0,97,0.00,,,0.01,Wunderground v.1.15,2013-09-02 13:20:00,
2013-09-02 09:30:00,71.3,70.4,29.58,South,177,0.0,0.0,97,0.00,,,0.01,Wunderground v.1.15,2013-09-02 13:30:00,
2013-09-02 09:35:00,71.3,70.4,29.58,South,191,0.0,0.0,97,0.00,,,0.01,Wunderground v.1.15,2013-09-02 13:35:00,
2013-09-02 09:40:00,71.4,70.5,29.58,SW,225,0.0,0.0,97,0.00,,,0.01,Wunderground v.1.15,2013-09-02 13:40:00,
2013-09-02 09:45:00,71.4,70.5,29.58,SSE,166,0.0,0.0,97,0.00,,,0.01,Wunderground v.1.15,2013-09-02 13:45:00,
2013-09-02 09:55:00,71.5,70.6,29.58,South,178,0.0,0.0,97,0.00,,,0.01,Wunderground v.1.15,2013-09-02 13:55:00,
2013-09-02 10:05:00,71.6,70.7,29.58,South,176,0.0,0.0,97,0.00,,,0.01,Wunderground v.1.15,2013-09-02 14:05:00,
2013-09-02 10:15:00,71.6,70.7,29.58,SE,134,0.0,0.0,97,0.00,,,0.01,Wunderground v.1.15,2013-09-02 14:15:00,
2013-09-02 10:20:00,71.6,70.7,29.58,SE,134,0.0,0.0,97,0.00,,,0.01,Wunderground v.1.15,2013-09-02 14:20:00,
2013-09-02 10:25:00,71.7,70.8,29.58,SE,134,0.0,0.0,97,0.00,,,0.02,Wunderground v.1.15,2013-09-02 14:25:00,
2013-09-02 10:30:00,71.7,70.8,29.58,SE,134,0.0,0.0,97,0.00,,,0.02,Wunderground v.1.15,2013-09-02 14:30:00,
2013-09-02 10:40:00,71.8,70.9,29.58,SSE,149,0.0,0.0,97,0.00,,,0.02,Wunderground v.1.15,2013-09-02 14:40:00,
2013-09-02 10:45:00,72.0,71.1,29.58,SSE,149,0.0,0.0,97,0.00,,,0.02,Wunderground v.1.15,2013-09-02 14:45:00,
2013-09-02 10:50:00,72.1,71.2,29.58,SSE,149,0.0,0.0,97,0.00,,,0.02,Wunderground v.1.15,2013-09-02 14:50:00,
2013-09-02 10:55:00,72.1,71.2,29.58,SSE,149,0.0,0.0,97,0.00,,,0.02,Wunderground v.1.15,2013-09-02 14:55:00,
2013-09-02 11:05:00,72.3,71.4,29.57,South,172,0.0,0.0,97,0.00,,,0.02,Wunderground v.1.15,2013-09-02 15:05:00,
2013-09-02 11:10:00,72.4,71.5,29.57,SSE,167,0.0,0.0,97,0.00,,,0.02,Wunderground v.1.15,2013-09-02 15:10:00,
2013-09-02 11:15:00,72.5,71.6,29.57,South,189,0.0,0.0,97,0.00,,,0.02,Wunderground v.1.15,2013-09-02 15:15:00,
2013-09-02 11:20:00,72.6,71.7,29.57,SSE,157,0.0,0.0,97,0.00,,,0.02,Wunderground v.1.15,2013-09-02 15:20:00,
2013-09-02 11:25:00,73.4,72.8,29.57,SSE,160,0.0,0.0,98,0.00,,,0.02,Wunderground v.1.15,2013-09-02 15:25:00,
2013-09-02 11:35:00,75.0,73.8,29.57,ENE,59,0.0,0.0,96,0.00,,,0.02,Wunderground v.1.15,2013-09-02 15:35:00,
2013-09-02 11:40:00,74.9,73.4,29.56,SSW,201,0.0,0.0,95,0.00,,,0.02,Wunderground v.1.15,2013-09-02 15:40:00,
2013-09-02 11:45:00,74.7,73.2,29.56,SSW,208,0.0,0.0,95,0.00,,,0.02,Wunderground v.1.15,2013-09-02 15:45:00,
2013-09-02 11:50:00,74.6,73.1,29.56,SE,138,0.0,0.0,95,0.00,,,0.02,Wunderground v.1.15,2013-09-02 15:50:00,
2013-09-02 12:00:00,75.5,74.3,29.57,NE,52,0.0,0.0,96,0.00,,,0.02,Wunderground v.1.15,2013-09-02 16:00:00,
2013-09-02 12:05:00,75.6,73.4,29.56,SE,144,0.0,0.0,93,0.00,,,0.02,Wunderground v.1.15,2013-09-02 16:05:00,
2013-09-02 12:10:00,76.3,74.8,29.56,SSE,154,0.0,0.0,95,0.00,,,0.02,Wunderground v.1.15,2013-09-02 16:10:00,
2013-09-02 12:15:00,76.6,74.1,29.56,South,175,0.0,0.0,92,0.00,,,0.02,Wunderground v.1.15,2013-09-02 16:15:00,
2013-09-02 12:25:00,76.2,73.4,29.55,SSE,159,0.0,0.0,91,0.00,,,0.02,Wunderground v.1.15,2013-09-02 16:25:00,
2013-09-02 12:30:00,76.2,73.4,29.55,SSE,159,0.0,0.0,91,0.00,,,0.02,Wunderground v.1.15,2013-09-02 16:30:00,
2013-09-02 12:35:00,76.1,73.3,29.55,SSE,159,0.0,0.0,91,0.00,,,0.02,Wunderground v.1.15,2013-09-02 16:35:00,
2013-09-02 12:40:00,76.0,73.5,29.55,SSE,159,0.0,0.0,92,0.00,,,0.03,Wunderground v.1.15,2013-09-02 16:40:00,
2013-09-02 12:50:00,75.1,72.3,29.55,SW,219,0.0,0.0,91,0.60,,,0.24,Wunderground v.1.15,2013-09-02 16:50:00,
2013-09-02 12:55:00,74.8,72.0,29.55,SW,219,0.0,0.0,91,0.23,,,0.26,Wunderground v.1.15,2013-09-02 16:55:00,
2013-09-02 13:00:00,74.2,71.4,29.54,SSW,211,0.0,0.0,91,0.11,,,0.27,Wunderground v.1.15,2013-09-02 17:00:00,
2013-09-02 13:10:00,73.3,70.5,29.54,SSW,211,0.0,0.0,91,0.07,,,0.28,Wunderground v.1.15,2013-09-02 17:10:00,
2013-09-02 13:15:00,73.0,70.2,29.54,ENE,71,0.0,0.0,91,0.07,,,0.28,Wunderground v.1.15,2013-09-02 17:15:00,
2013-09-02 13:20:00,72.8,70.3,29.53,ENE,70,0.0,0.0,92,0.05,,,0.28,Wunderground v.1.15,2013-09-02 17:20:00,
2013-09-02 13:25:00,73.6,72.1,29.52,ENE,78,0.0,0.0,95,0.00,,,0.28,Wunderground v.1.15,2013-09-02 17:25:00,
2013-09-02 13:35:00,73.1,71.0,29.53,SE,132,0.0,0.0,93,0.00,,,0.28,Wunderground v.1.15,2013-09-02 17:35:00,
2013-09-02 13:40:00,72.9,71.1,29.52,South,188,0.0,0.0,94,0.00,,,0.28,Wunderground v.1.15,2013-09-02 17:40:00,
2013-09-02 13:45:00,72.5,70.7,29.53,SSW,209,0.0,0.0,94,0.00,,,0.28,Wunderground v.1.15,2013-09-02 17:45:00,
2013-09-02 13:50:00,72.9,71.4,29.52,SSW,211,0.0,0.0,95,0.00,,,0.28,Wunderground v.1.15,2013-09-02 17:50:00,
2013-09-02 14:00:00,73.1,70.6,29.53,South,174,0.0,0.0,92,0.00,,,0.28,Wunderground v.1.15,2013-09-02 18:00:00,
2013-09-02 14:05:00,73.3,71.5,29.53,SSE,165,0.0,0.0,94,0.00,,,0.28,Wunderground v.1.15,2013-09-02 18:05:00,
2013-09-02 14:10:00,73.7,71.5,29.53,South,169,0.0,0.0,93,0.00,,,0.28,Wunderground v.1.15,2013-09-02 18:10:00,
2013-09-02 14:15:00,74.0,72.5,29.53,NW,308,0.0,0.0,95,0.00,,,0.28,Wunderground v.1.15,2013-09-02 18:15:00,
2013-09-02 14:25:00,74.5,72.0,29.53,NW,305,0.0,0.0,92,0.00,,,0.28,Wunderground v.1.15,2013-09-02 18:25:00,
2013-09-02 14:30:00,74.6,71.5,29.53,WNW,302,0.0,0.0,90,0.00,,,0.28,Wunderground v.1.15,2013-09-02 18:30:00,
2013-09-02 14:35:00,74.3,71.5,29.53,West,281,0.0,0.0,91,0.00,,,0.28,Wunderground v.1.15,2013-09-02 18:35:00,
2013-09-02 14:40:00,74.2,71.4,29.53,West,273,0.0,0.0,91,0.00,,,0.28,Wunderground v.1.15,2013-09-02 18:40:00,
2013-09-02 14:45:00,74.6,71.8,29.53,East,86,0.0,0.0,91,0.00,,,0.28,Wunderground v.1.15,2013-09-02 18:45:00,
2013-09-02 14:55:00,74.5,71.0,29.53,SE,124,0.0,0.0,89,0.00,,,0.28,Wunderground v.1.15,2013-09-02 18:55:00,
2013-09-02 15:00:00,74.3,71.2,29.53,SSE,155,0.0,0.0,90,0.00,,,0.28,Wunderground v.1.15,2013-09-02 19:00:00,
2013-09-02 15:05:00,73.9,70.5,29.53,South,183,0.0,0.0,89,0.00,,,0.28,Wunderground v.1.15,2013-09-02 19:05:00,
2013-09-02 15:15:00,74.0,71.5,29.53,South,174,0.0,0.0,92,0.00,,,0.28,Wunderground v.1.15,2013-09-02 19:15:00,
2013-09-02 15:20:00,74.1,71.6,29.53,South,190,0.0,0.0,92,0.00,,,0.28,Wunderground v.1.15,2013-09-02 19:20:00,
2013-09-02 18:00:00,73.4,71.9,29.49,SSE,168,0.0,0.0,95,0.00,,,0.28,Wunderground v.1.15,2013-09-02 22:00:00,
2013-09-02 18:05:00,73.4,71.9,29.48,SSE,168,0.0,0.0,95,0.00,,,0.28,Wunderground v.1.15,2013-09-02 22:05:00,
2013-09-02 18:10:00,73.5,72.0,29.47,SSE,168,0.0,0.0,95,0.00,,,0.28,Wunderground v.1.15,2013-09-02 22:10:00,
2013-09-02 18:15:00,73.5,72.0,29.47,SSE,168,0.0,0.0,95,0.00,,,0.28,Wunderground v.1.15,2013-09-02 22:15:00,
2013-09-02 18:20:00,73.4,71.9,29.48,SSE,168,0.0,0.0,95,0.00,,,0.28,Wunderground v.1.15,2013-09-02 22:20:00,
2013-09-02 18:30:00,73.3,71.8,29.48,SSE,168,0.0,0.0,95,0.00,,,0.28,Wunderground v.1.15,2013-09-02 22:30:00,
2013-09-02 18:35:00,73.3,71.8,29.48,SSE,168,0.0,0.0,95,0.00,,,0.28,Wunderground v.1.15,2013-09-02 22:35:00,
2013-09-02 18:40:00,73.3,71.8,29.48,SSE,168,0.0,0.0,95,0.00,,,0.28,Wunderground v.1.15,2013-09-02 22:40:00,
2013-09-02 18:45:00,73.3,71.8,29.48,SSE,168,0.0,0.0,95,0.00,,,0.28,Wunderground v.1.15,2013-09-02 22:45:00,
2013-09-02 18:55:00,73.2,71.7,29.49,SSE,168,0.0,0.0,95,0.00,,,0.28,Wunderground v.1.15,2013-09-02 22:55:00,
2013-09-02 19:00:00,73.1,71.6,29.48,South,189,0.0,0.0,95,0.00,,,0.28,Wunderground v.1.15,2013-09-02 23:00:00,
2013-09-02 19:05:00,73.1,71.6,29.49,South,189,0.0,0.0,95,0.00,,,0.28,Wunderground v.1.15,2013-09-02 23:05:00,
2013-09-02 19:10:00,73.0,71.5,29.49,South,189,0.0,0.0,95,0.00,,,0.28,Wunderground v.1.15,2013-09-02 23:10:00,
2013-09-02 19:20:00,73.0,71.5,29.48,South,189,0.0,0.0,95,0.00,,,0.28,Wunderground v.1.15,2013-09-02 23:20:00,
2013-09-02 19:25:00,72.9,71.4,29.48,South,189,0.0,0.0,95,0.00,,,0.28,Wunderground v.1.15,2013-09-02 23:25:00,
2013-09-02 19:30:00,72.9,71.4,29.48,South,189,0.0,0.0,95,0.00,,,0.28,Wunderground v.1.15,2013-09-02 23:30:00,
2013-09-02 19:40:00,72.8,71.3,29.48,South,189,0.0,0.0,95,0.00,,,0.28,Wunderground v.1.15,2013-09-02 23:40:00,
2013-09-02 19:45:00,72.7,71.2,29.47,South,189,0.0,0.0,95,0.00,,,0.28,Wunderground v.1.15,2013-09-02 23:45:00,
2013-09-02 19:50:00,72.7,71.2,29.47,South,189,0.0,0.0,95,0.00,,,0.28,Wunderground v.1.15,2013-09-02 23:50:00,
2013-09-02 19:55:00,72.6,71.1,29.47,East,100,0.0,0.0,95,0.00,,,0.28,Wunderground v.1.15,2013-09-02 23:55:00,
2013-09-02 20:00:00,72.6,71.1,29.47,East,100,0.0,0.0,95,0.00,,,0.28,Wunderground v.1.15,2013-09-03 00:00:00,
2013-09-02 20:10:00,72.5,71.3,29.47,East,100,0.0,0.0,96,0.00,,,0.28,Wunderground v.1.15,2013-09-03 00:10:00,
2013-09-02 20:15:00,72.4,71.2,29.48,East,100,0.0,0.0,96,0.00,,,0.28,Wunderground v.1.15,2013-09-03 00:15:00,
2013-09-02 20:20:00,72.4,71.2,29.48,East,100,0.0,0.0,96,0.00,,,0.28,Wunderground v.1.15,2013-09-03 00:20:00,
2013-09-02 20:30:00,72.3,71.1,29.49,East,100,0.0,0.0,96,0.00,,,0.28,Wunderground v.1.15,2013-09-03 00:30:00,
2013-09-02 20:35:00,72.2,71.0,29.49,East,100,0.0,0.0,96,0.00,,,0.28,Wunderground v.1.15,2013-09-03 00:35:00,